sensor_id;sensor_type;location;lat;lon;timestamp;temperature;humidity
33841;DHT22;20142;28.494;-16.312;2023-10-08T00:03:54;29.60;51.10
33841;DHT22;20142;28.494;-16.312;2023-10-08T00:08:59;29.50;51.00
33841;DHT22;20142;28.494;-16.312;2023-10-08T00:14:03;29.30;49.70
33841;DHT22;20142;28.494;-16.312;2023-10-08T00:19:09;29.30;49.00
33841;DHT22;20142;28.494;-16.312;2023-10-08T00:24:16;29.10;48.00
33841;DHT22;20142;28.494;-16.312;2023-10-08T00:29:17;29.00;48.50
33841;DHT22;20142;28.494;-16.312;2023-10-08T00:34:22;28.90;48.30
33841;DHT22;20142;28.494;-16.312;2023-10-08T00:39:28;28.80;49.00
33841;DHT22;20142;28.494;-16.312;2023-10-08T00:44:36;28.80;48.80
33841;DHT22;20142;28.494;-16.312;2023-10-08T00:49:52;28.70;48.60
33841;DHT22;20142;28.494;-16.312;2023-10-08T00:55:09;28.70;48.20
33841;DHT22;20142;28.494;-16.312;2023-10-08T01:00:16;28.60;48.30
33841;DHT22;20142;28.494;-16.312;2023-10-08T01:05:22;28.60;48.40
33841;DHT22;20142;28.494;-16.312;2023-10-08T01:10:39;28.60;49.50
33841;DHT22;20142;28.494;-16.312;2023-10-08T01:15:59;28.80;49.60
33841;DHT22;20142;28.494;-16.312;2023-10-08T01:21:01;28.90;50.00
33841;DHT22;20142;28.494;-16.312;2023-10-08T01:26:08;29.00;50.00
33841;DHT22;20142;28.494;-16.312;2023-10-08T01:31:13;28.90;48.60
33841;DHT22;20142;28.494;-16.312;2023-10-08T01:36:16;28.80;47.90
33841;DHT22;20142;28.494;-16.312;2023-10-08T01:41:18;28.70;48.70
33841;DHT22;20142;28.494;-16.312;2023-10-08T01:46:20;28.80;49.10
33841;DHT22;20142;28.494;-16.312;2023-10-08T01:51:23;28.70;49.00
33841;DHT22;20142;28.494;-16.312;2023-10-08T01:56:38;28.60;48.70
33841;DHT22;20142;28.494;-16.312;2023-10-08T02:01:44;28.60;49.20
33841;DHT22;20142;28.494;-16.312;2023-10-08T02:06:49;28.40;49.10
33841;DHT22;20142;28.494;-16.312;2023-10-08T02:11:52;28.40;50.10
33841;DHT22;20142;28.494;-16.312;2023-10-08T02:16:58;28.20;51.30
33841;DHT22;20142;28.494;-16.312;2023-10-08T02:22:06;28.20;50.80
33841;DHT22;20142;28.494;-16.312;2023-10-08T02:27:10;28.10;50.60
33841;DHT22;20142;28.494;-16.312;2023-10-08T02:32:14;28.10;50.60
33841;DHT22;20142;28.494;-16.312;2023-10-08T02:37:16;28.00;51.40
33841;DHT22;20142;28.494;-16.312;2023-10-08T02:42:20;28.00;51.70
33841;DHT22;20142;28.494;-16.312;2023-10-08T02:47:23;27.90;52.00
33841;DHT22;20142;28.494;-16.312;2023-10-08T02:52:25;27.80;51.70
33841;DHT22;20142;28.494;-16.312;2023-10-08T02:57:27;27.70;52.00
33841;DHT22;20142;28.494;-16.312;2023-10-08T03:02:31;27.80;52.60
33841;DHT22;20142;28.494;-16.312;2023-10-08T03:07:32;27.90;53.40
33841;DHT22;20142;28.494;-16.312;2023-10-08T03:12:34;27.70;53.20
33841;DHT22;20142;28.494;-16.312;2023-10-08T03:17:37;27.60;52.70
33841;DHT22;20142;28.494;-16.312;2023-10-08T03:22:49;27.60;51.60
33841;DHT22;20142;28.494;-16.312;2023-10-08T03:27:51;27.60;50.70
33841;DHT22;20142;28.494;-16.312;2023-10-08T03:32:55;27.60;49.90
33841;DHT22;20142;28.494;-16.312;2023-10-08T03:37:57;27.60;48.80
33841;DHT22;20142;28.494;-16.312;2023-10-08T03:43:18;27.70;47.70
33841;DHT22;20142;28.494;-16.312;2023-10-08T03:48:35;27.70;46.70
33841;DHT22;20142;28.494;-16.312;2023-10-08T03:53:39;27.80;46.30
33841;DHT22;20142;28.494;-16.312;2023-10-08T03:58:59;27.70;46.10
33841;DHT22;20142;28.494;-16.312;2023-10-08T04:04:13;27.70;45.40
33841;DHT22;20142;28.494;-16.312;2023-10-08T04:09:16;27.70;45.20
33841;DHT22;20142;28.494;-16.312;2023-10-08T04:14:27;27.70;45.20
33841;DHT22;20142;28.494;-16.312;2023-10-08T04:19:30;27.70;45.00
33841;DHT22;20142;28.494;-16.312;2023-10-08T04:24:31;27.70;45.20
33841;DHT22;20142;28.494;-16.312;2023-10-08T04:29:36;27.70;45.10
33841;DHT22;20142;28.494;-16.312;2023-10-08T04:34:39;27.80;45.10
33841;DHT22;20142;28.494;-16.312;2023-10-08T04:39:46;27.70;45.20
33841;DHT22;20142;28.494;-16.312;2023-10-08T04:44:55;27.70;45.50
33841;DHT22;20142;28.494;-16.312;2023-10-08T04:49:59;27.80;45.20
33841;DHT22;20142;28.494;-16.312;2023-10-08T04:55:05;27.70;45.50
33841;DHT22;20142;28.494;-16.312;2023-10-08T05:00:19;27.70;45.60
33841;DHT22;20142;28.494;-16.312;2023-10-08T05:05:41;27.70;45.40
33841;DHT22;20142;28.494;-16.312;2023-10-08T05:11:06;27.80;45.70
33841;DHT22;20142;28.494;-16.312;2023-10-08T05:16:25;27.70;46.50
33841;DHT22;20142;28.494;-16.312;2023-10-08T05:22:01;27.70;47.70
33841;DHT22;20142;28.494;-16.312;2023-10-08T05:27:19;27.60;48.60
33841;DHT22;20142;28.494;-16.312;2023-10-08T05:32:39;27.60;49.00
33841;DHT22;20142;28.494;-16.312;2023-10-08T05:37:59;27.60;48.90
33841;DHT22;20142;28.494;-16.312;2023-10-08T05:43:14;27.50;49.30
33841;DHT22;20142;28.494;-16.312;2023-10-08T05:48:34;27.50;49.00
33841;DHT22;20142;28.494;-16.312;2023-10-08T05:53:46;27.50;49.50
33841;DHT22;20142;28.494;-16.312;2023-10-08T05:58:50;27.50;49.20
33841;DHT22;20142;28.494;-16.312;2023-10-08T06:04:12;27.40;48.90
33841;DHT22;20142;28.494;-16.312;2023-10-08T06:09:42;27.40;49.20
33841;DHT22;20142;28.494;-16.312;2023-10-08T06:15:02;27.30;50.00
33841;DHT22;20142;28.494;-16.312;2023-10-08T06:20:12;27.40;50.10
33841;DHT22;20142;28.494;-16.312;2023-10-08T06:25:18;27.40;50.90
33841;DHT22;20142;28.494;-16.312;2023-10-08T06:30:24;27.30;50.50
33841;DHT22;20142;28.494;-16.312;2023-10-08T06:35:30;27.40;51.10
33841;DHT22;20142;28.494;-16.312;2023-10-08T06:40:35;27.40;51.40
33841;DHT22;20142;28.494;-16.312;2023-10-08T06:45:41;27.30;52.40
33841;DHT22;20142;28.494;-16.312;2023-10-08T06:50:45;27.40;52.80
33841;DHT22;20142;28.494;-16.312;2023-10-08T06:55:47;27.30;52.00
33841;DHT22;20142;28.494;-16.312;2023-10-08T07:00:49;27.30;51.60
33841;DHT22;20142;28.494;-16.312;2023-10-08T07:05:51;27.30;51.80
33841;DHT22;20142;28.494;-16.312;2023-10-08T07:11:01;27.30;52.00
33841;DHT22;20142;28.494;-16.312;2023-10-08T07:16:07;27.20;51.50
33841;DHT22;20142;28.494;-16.312;2023-10-08T07:21:12;27.20;51.00
33841;DHT22;20142;28.494;-16.312;2023-10-08T07:26:15;27.20;50.30
33841;DHT22;20142;28.494;-16.312;2023-10-08T07:31:21;27.20;49.80
33841;DHT22;20142;28.494;-16.312;2023-10-08T07:36:27;27.30;49.30
33841;DHT22;20142;28.494;-16.312;2023-10-08T07:41:32;27.30;48.90
33841;DHT22;20142;28.494;-16.312;2023-10-08T07:46:35;27.40;48.70
33841;DHT22;20142;28.494;-16.312;2023-10-08T07:51:36;27.40;49.20
33841;DHT22;20142;28.494;-16.312;2023-10-08T07:56:38;27.40;49.70
33841;DHT22;20142;28.494;-16.312;2023-10-08T08:01:41;27.50;49.30
33841;DHT22;20142;28.494;-16.312;2023-10-08T08:06:43;27.50;49.30
33841;DHT22;20142;28.494;-16.312;2023-10-08T08:11:46;27.60;49.20
33841;DHT22;20142;28.494;-16.312;2023-10-08T08:16:47;27.50;49.00
33841;DHT22;20142;28.494;-16.312;2023-10-08T08:21:49;27.60;48.90
33841;DHT22;20142;28.494;-16.312;2023-10-08T08:26:53;27.60;48.40
33841;DHT22;20142;28.494;-16.312;2023-10-08T08:32:12;27.70;48.50
33841;DHT22;20142;28.494;-16.312;2023-10-08T08:37:22;27.80;48.20
33841;DHT22;20142;28.494;-16.312;2023-10-08T08:42:29;27.90;47.90
33841;DHT22;20142;28.494;-16.312;2023-10-08T08:47:32;27.90;47.50
33841;DHT22;20142;28.494;-16.312;2023-10-08T08:52:36;28.00;46.80
33841;DHT22;20142;28.494;-16.312;2023-10-08T08:57:38;28.60;45.90
33841;DHT22;20142;28.494;-16.312;2023-10-08T09:02:41;28.80;45.10
33841;DHT22;20142;28.494;-16.312;2023-10-08T09:08:05;28.90;44.00
33841;DHT22;20142;28.494;-16.312;2023-10-08T09:13:10;29.10;43.60
33841;DHT22;20142;28.494;-16.312;2023-10-08T09:18:12;29.30;43.50
33841;DHT22;20142;28.494;-16.312;2023-10-08T09:23:17;29.50;43.00
33841;DHT22;20142;28.494;-16.312;2023-10-08T09:28:19;29.70;42.70
33841;DHT22;20142;28.494;-16.312;2023-10-08T09:33:22;29.80;42.50
33841;DHT22;20142;28.494;-16.312;2023-10-08T09:38:24;30.00;42.00
33841;DHT22;20142;28.494;-16.312;2023-10-08T09:43:31;29.90;42.40
33841;DHT22;20142;28.494;-16.312;2023-10-08T09:48:37;29.80;42.90
33841;DHT22;20142;28.494;-16.312;2023-10-08T09:54:02;29.70;42.20
33841;DHT22;20142;28.494;-16.312;2023-10-08T09:59:06;30.20;41.60
33841;DHT22;20142;28.494;-16.312;2023-10-08T10:04:22;30.50;40.60
33841;DHT22;20142;28.494;-16.312;2023-10-08T10:09:29;30.70;40.70
33841;DHT22;20142;28.494;-16.312;2023-10-08T10:14:46;30.90;40.20
33841;DHT22;20142;28.494;-16.312;2023-10-08T10:20:01;31.00;40.20
33841;DHT22;20142;28.494;-16.312;2023-10-08T10:25:05;31.20;40.10
33841;DHT22;20142;28.494;-16.312;2023-10-08T10:30:18;31.30;40.00
33841;DHT22;20142;28.494;-16.312;2023-10-08T10:35:20;31.50;39.60
33841;DHT22;20142;28.494;-16.312;2023-10-08T10:40:23;31.70;39.60
33841;DHT22;20142;28.494;-16.312;2023-10-08T10:45:41;31.90;38.60
33841;DHT22;20142;28.494;-16.312;2023-10-08T10:50:51;32.00;38.50
33841;DHT22;20142;28.494;-16.312;2023-10-08T10:56:05;32.00;38.30
33841;DHT22;20142;28.494;-16.312;2023-10-08T11:01:10;32.20;38.30
33841;DHT22;20142;28.494;-16.312;2023-10-08T11:06:25;32.30;38.10
33841;DHT22;20142;28.494;-16.312;2023-10-08T11:11:28;32.40;38.00
33841;DHT22;20142;28.494;-16.312;2023-10-08T11:16:32;32.50;38.10
33841;DHT22;20142;28.494;-16.312;2023-10-08T11:21:48;32.60;37.70
33841;DHT22;20142;28.494;-16.312;2023-10-08T11:26:51;32.60;37.60
33841;DHT22;20142;28.494;-16.312;2023-10-08T11:32:08;32.70;37.10
33841;DHT22;20142;28.494;-16.312;2023-10-08T11:37:13;32.70;37.10
33841;DHT22;20142;28.494;-16.312;2023-10-08T11:42:21;32.90;37.00
33841;DHT22;20142;28.494;-16.312;2023-10-08T11:47:38;33.20;36.90
33841;DHT22;20142;28.494;-16.312;2023-10-08T11:52:43;33.20;36.80
33841;DHT22;20142;28.494;-16.312;2023-10-08T11:57:46;33.20;36.80
33841;DHT22;20142;28.494;-16.312;2023-10-08T12:02:50;33.30;36.70
33841;DHT22;20142;28.494;-16.312;2023-10-08T12:07:56;33.30;36.80
33841;DHT22;20142;28.494;-16.312;2023-10-08T12:12:59;33.50;37.20
33841;DHT22;20142;28.494;-16.312;2023-10-08T12:18:01;33.60;37.10
33841;DHT22;20142;28.494;-16.312;2023-10-08T12:23:25;33.60;37.00
33841;DHT22;20142;28.494;-16.312;2023-10-08T12:28:27;33.70;36.40
33841;DHT22;20142;28.494;-16.312;2023-10-08T12:33:29;33.70;36.50
33841;DHT22;20142;28.494;-16.312;2023-10-08T12:38:31;33.70;36.70
33841;DHT22;20142;28.494;-16.312;2023-10-08T12:43:33;33.70;36.50
33841;DHT22;20142;28.494;-16.312;2023-10-08T12:48:39;33.70;36.40
33841;DHT22;20142;28.494;-16.312;2023-10-08T12:53:41;33.90;36.40
33841;DHT22;20142;28.494;-16.312;2023-10-08T12:58:51;34.00;36.20
33841;DHT22;20142;28.494;-16.312;2023-10-08T13:03:55;34.00;35.90
33841;DHT22;20142;28.494;-16.312;2023-10-08T13:09:02;34.10;35.60
33841;DHT22;20142;28.494;-16.312;2023-10-08T13:14:10;34.40;35.40
33841;DHT22;20142;28.494;-16.312;2023-10-08T13:19:12;34.60;35.00
33841;DHT22;20142;28.494;-16.312;2023-10-08T13:24:14;34.90;34.60
33841;DHT22;20142;28.494;-16.312;2023-10-08T13:29:18;35.10;34.60
33841;DHT22;20142;28.494;-16.312;2023-10-08T13:34:19;35.30;34.90
33841;DHT22;20142;28.494;-16.312;2023-10-08T13:39:22;35.60;34.40
33841;DHT22;20142;28.494;-16.312;2023-10-08T13:44:24;35.60;34.30
33841;DHT22;20142;28.494;-16.312;2023-10-08T13:49:30;35.60;34.40
33841;DHT22;20142;28.494;-16.312;2023-10-08T13:54:31;35.70;34.00
33841;DHT22;20142;28.494;-16.312;2023-10-08T13:59:36;35.80;33.80
33841;DHT22;20142;28.494;-16.312;2023-10-08T14:04:39;36.00;33.70
33841;DHT22;20142;28.494;-16.312;2023-10-08T14:09:46;36.30;33.50
33841;DHT22;20142;28.494;-16.312;2023-10-08T14:14:48;36.50;33.30
33841;DHT22;20142;28.494;-16.312;2023-10-08T14:19:50;36.80;32.40
33841;DHT22;20142;28.494;-16.312;2023-10-08T14:25:02;37.30;31.90
33841;DHT22;20142;28.494;-16.312;2023-10-08T14:30:04;37.90;31.40
33841;DHT22;20142;28.494;-16.312;2023-10-08T14:35:07;39.00;30.90
33841;DHT22;20142;28.494;-16.312;2023-10-08T14:40:27;39.40;30.40
33841;DHT22;20142;28.494;-16.312;2023-10-08T14:45:47;42.70;29.00
33841;DHT22;20142;28.494;-16.312;2023-10-08T14:50:50;45.60;28.30
33841;DHT22;20142;28.494;-16.312;2023-10-08T14:55:52;47.70;27.50
33841;DHT22;20142;28.494;-16.312;2023-10-08T15:00:54;48.80;26.80
33841;DHT22;20142;28.494;-16.312;2023-10-08T15:05:55;50.50;25.70
33841;DHT22;20142;28.494;-16.312;2023-10-08T15:10:58;51.40;25.00
33841;DHT22;20142;28.494;-16.312;2023-10-08T15:16:01;52.40;24.00
33841;DHT22;20142;28.494;-16.312;2023-10-08T15:21:05;52.50;22.60
33841;DHT22;20142;28.494;-16.312;2023-10-08T15:26:08;52.70;22.90
33841;DHT22;20142;28.494;-16.312;2023-10-08T15:31:13;53.00;22.10
33841;DHT22;20142;28.494;-16.312;2023-10-08T15:36:14;52.90;21.60
33841;DHT22;20142;28.494;-16.312;2023-10-08T15:41:16;53.30;21.50
33841;DHT22;20142;28.494;-16.312;2023-10-08T15:46:20;53.60;20.90
33841;DHT22;20142;28.494;-16.312;2023-10-08T15:51:22;53.90;20.70
33841;DHT22;20142;28.494;-16.312;2023-10-08T15:56:27;53.50;20.20
33841;DHT22;20142;28.494;-16.312;2023-10-08T16:01:28;52.70;20.20
33841;DHT22;20142;28.494;-16.312;2023-10-08T16:06:30;53.70;20.10
33841;DHT22;20142;28.494;-16.312;2023-10-08T16:11:32;54.20;19.90
33841;DHT22;20142;28.494;-16.312;2023-10-08T16:16:35;54.70;19.50
33841;DHT22;20142;28.494;-16.312;2023-10-08T16:21:38;54.30;19.80
33841;DHT22;20142;28.494;-16.312;2023-10-08T16:26:43;54.30;19.40
33841;DHT22;20142;28.494;-16.312;2023-10-08T16:31:45;53.00;19.40
33841;DHT22;20142;28.494;-16.312;2023-10-08T16:36:48;52.20;19.00
33841;DHT22;20142;28.494;-16.312;2023-10-08T16:41:51;50.90;19.30
33841;DHT22;20142;28.494;-16.312;2023-10-08T16:46:56;49.60;18.90
33841;DHT22;20142;28.494;-16.312;2023-10-08T16:51:58;48.10;19.20
33841;DHT22;20142;28.494;-16.312;2023-10-08T16:57:00;46.40;19.90
33841;DHT22;20142;28.494;-16.312;2023-10-08T17:02:03;46.30;20.10
33841;DHT22;20142;28.494;-16.312;2023-10-08T17:07:05;45.70;20.50
33841;DHT22;20142;28.494;-16.312;2023-10-08T17:12:07;44.00;20.80
33841;DHT22;20142;28.494;-16.312;2023-10-08T17:17:11;42.40;21.30
33841;DHT22;20142;28.494;-16.312;2023-10-08T17:22:13;40.90;21.60
33841;DHT22;20142;28.494;-16.312;2023-10-08T17:27:15;39.40;22.10
33841;DHT22;20142;28.494;-16.312;2023-10-08T17:32:17;38.40;22.40
33841;DHT22;20142;28.494;-16.312;2023-10-08T17:37:22;37.40;23.20
33841;DHT22;20142;28.494;-16.312;2023-10-08T17:42:25;36.50;23.30
33841;DHT22;20142;28.494;-16.312;2023-10-08T17:47:28;35.70;23.90
33841;DHT22;20142;28.494;-16.312;2023-10-08T17:52:30;35.40;24.40
33841;DHT22;20142;28.494;-16.312;2023-10-08T17:57:32;34.70;24.50
33841;DHT22;20142;28.494;-16.312;2023-10-08T18:02:35;34.00;25.50
33841;DHT22;20142;28.494;-16.312;2023-10-08T18:07:37;33.50;25.60
33841;DHT22;20142;28.494;-16.312;2023-10-08T18:12:39;33.10;26.00
33841;DHT22;20142;28.494;-16.312;2023-10-08T18:17:42;32.60;26.60
33841;DHT22;20142;28.494;-16.312;2023-10-08T18:22:47;32.30;26.80
33841;DHT22;20142;28.494;-16.312;2023-10-08T18:27:52;32.00;27.10
33841;DHT22;20142;28.494;-16.312;2023-10-08T18:32:55;31.90;27.50
33841;DHT22;20142;28.494;-16.312;2023-10-08T18:37:57;31.40;27.90
33841;DHT22;20142;28.494;-16.312;2023-10-08T18:43:01;31.20;28.50
33841;DHT22;20142;28.494;-16.312;2023-10-08T18:48:03;31.00;28.50
33841;DHT22;20142;28.494;-16.312;2023-10-08T18:53:06;30.80;28.80
33841;DHT22;20142;28.494;-16.312;2023-10-08T18:58:08;30.80;28.80
33841;DHT22;20142;28.494;-16.312;2023-10-08T19:03:11;30.70;29.10
33841;DHT22;20142;28.494;-16.312;2023-10-08T19:08:12;30.80;29.70
33841;DHT22;20142;28.494;-16.312;2023-10-08T19:13:16;31.20;29.70
33841;DHT22;20142;28.494;-16.312;2023-10-08T19:18:19;31.60;30.00
33841;DHT22;20142;28.494;-16.312;2023-10-08T19:23:23;31.90;30.00
33841;DHT22;20142;28.494;-16.312;2023-10-08T19:28:26;32.00;30.40
33841;DHT22;20142;28.494;-16.312;2023-10-08T19:33:28;32.00;31.00
33841;DHT22;20142;28.494;-16.312;2023-10-08T19:38:30;32.00;31.30
33841;DHT22;20142;28.494;-16.312;2023-10-08T19:43:32;32.10;31.50
33841;DHT22;20142;28.494;-16.312;2023-10-08T19:48:34;32.00;31.80
33841;DHT22;20142;28.494;-16.312;2023-10-08T19:53:38;32.00;32.20
33841;DHT22;20142;28.494;-16.312;2023-10-08T19:58:40;31.90;32.50
33841;DHT22;20142;28.494;-16.312;2023-10-08T20:03:42;32.00;32.80
33841;DHT22;20142;28.494;-16.312;2023-10-08T20:08:44;32.00;33.30
33841;DHT22;20142;28.494;-16.312;2023-10-08T20:13:50;31.90;32.90
33841;DHT22;20142;28.494;-16.312;2023-10-08T20:18:52;31.80;33.20
33841;DHT22;20142;28.494;-16.312;2023-10-08T20:23:53;31.80;32.90
33841;DHT22;20142;28.494;-16.312;2023-10-08T20:28:55;31.80;34.00
33841;DHT22;20142;28.494;-16.312;2023-10-08T20:33:59;31.80;33.70
33841;DHT22;20142;28.494;-16.312;2023-10-08T20:39:01;31.70;33.80
33841;DHT22;20142;28.494;-16.312;2023-10-08T20:44:03;31.70;34.00
33841;DHT22;20142;28.494;-16.312;2023-10-08T20:49:06;31.60;33.90
33841;DHT22;20142;28.494;-16.312;2023-10-08T20:54:07;31.60;33.90
33841;DHT22;20142;28.494;-16.312;2023-10-08T20:59:09;31.40;34.00
33841;DHT22;20142;28.494;-16.312;2023-10-08T21:04:11;31.40;34.20
33841;DHT22;20142;28.494;-16.312;2023-10-08T21:09:13;31.30;34.30
33841;DHT22;20142;28.494;-16.312;2023-10-08T21:14:16;31.30;34.60
33841;DHT22;20142;28.494;-16.312;2023-10-08T21:19:18;31.20;34.60
33841;DHT22;20142;28.494;-16.312;2023-10-08T21:24:20;31.20;35.40
33841;DHT22;20142;28.494;-16.312;2023-10-08T21:29:21;31.10;35.30
33841;DHT22;20142;28.494;-16.312;2023-10-08T21:34:23;31.10;35.50
33841;DHT22;20142;28.494;-16.312;2023-10-08T21:39:29;31.00;35.60
33841;DHT22;20142;28.494;-16.312;2023-10-08T21:44:31;30.80;34.60
33841;DHT22;20142;28.494;-16.312;2023-10-08T21:49:33;30.40;34.00
33841;DHT22;20142;28.494;-16.312;2023-10-08T21:54:35;30.20;33.30
33841;DHT22;20142;28.494;-16.312;2023-10-08T21:59:36;30.10;33.40
33841;DHT22;20142;28.494;-16.312;2023-10-08T22:04:38;29.90;32.90
33841;DHT22;20142;28.494;-16.312;2023-10-08T22:09:40;29.90;32.60
33841;DHT22;20142;28.494;-16.312;2023-10-08T22:14:43;29.70;32.20
33841;DHT22;20142;28.494;-16.312;2023-10-08T22:19:47;29.60;32.50
33841;DHT22;20142;28.494;-16.312;2023-10-08T22:24:50;29.50;32.30
33841;DHT22;20142;28.494;-16.312;2023-10-08T22:29:52;29.50;32.60
33841;DHT22;20142;28.494;-16.312;2023-10-08T22:34:55;29.50;32.60
33841;DHT22;20142;28.494;-16.312;2023-10-08T22:40:02;29.40;32.70
33841;DHT22;20142;28.494;-16.312;2023-10-08T22:45:15;29.20;32.90
33841;DHT22;20142;28.494;-16.312;2023-10-08T22:50:17;29.20;33.00
33841;DHT22;20142;28.494;-16.312;2023-10-08T22:55:38;28.90;34.10
33841;DHT22;20142;28.494;-16.312;2023-10-08T23:00:40;28.90;34.10
33841;DHT22;20142;28.494;-16.312;2023-10-08T23:05:42;28.80;34.50
33841;DHT22;20142;28.494;-16.312;2023-10-08T23:10:45;28.70;34.50
33841;DHT22;20142;28.494;-16.312;2023-10-08T23:15:47;28.40;34.50
33841;DHT22;20142;28.494;-16.312;2023-10-08T23:20:51;28.30;34.90
33841;DHT22;20142;28.494;-16.312;2023-10-08T23:25:53;28.50;35.30
33841;DHT22;20142;28.494;-16.312;2023-10-08T23:31:01;28.20;35.30
33841;DHT22;20142;28.494;-16.312;2023-10-08T23:36:09;28.10;35.60
33841;DHT22;20142;28.494;-16.312;2023-10-08T23:41:14;27.90;35.70
33841;DHT22;20142;28.494;-16.312;2023-10-08T23:46:16;28.00;35.90
33841;DHT22;20142;28.494;-16.312;2023-10-08T23:51:23;27.90;36.00
33841;DHT22;20142;28.494;-16.312;2023-10-08T23:56:24;27.80;36.50
